sensor_id;sensor_type;location;lat;lon;timestamp;temperature;humidity
25949;DHT22;13961;51.178;4.448;2023-09-08T00:01:22;21.90;99.90
25949;DHT22;13961;51.178;4.448;2023-09-08T00:03:48;21.90;99.90
25949;DHT22;13961;51.178;4.448;2023-09-08T00:06:14;22.00;99.90
25949;DHT22;13961;51.178;4.448;2023-09-08T00:08:39;21.80;99.90
25949;DHT22;13961;51.178;4.448;2023-09-08T00:11:05;21.70;99.90
25949;DHT22;13961;51.178;4.448;2023-09-08T00:13:32;21.80;99.90
25949;DHT22;13961;51.178;4.448;2023-09-08T00:15:58;21.80;99.90
25949;DHT22;13961;51.178;4.448;2023-09-08T00:18:24;21.60;99.90
25949;DHT22;13961;51.178;4.448;2023-09-08T00:20:49;21.50;99.90
25949;DHT22;13961;51.178;4.448;2023-09-08T00:23:15;21.40;99.90
25949;DHT22;13961;51.178;4.448;2023-09-08T00:25:40;21.20;99.90
25949;DHT22;13961;51.178;4.448;2023-09-08T00:28:06;21.30;99.90
25949;DHT22;13961;51.178;4.448;2023-09-08T00:30:32;21.40;99.90
25949;DHT22;13961;51.178;4.448;2023-09-08T00:32:57;21.50;99.90
25949;DHT22;13961;51.178;4.448;2023-09-08T00:35:23;21.50;99.90
25949;DHT22;13961;51.178;4.448;2023-09-08T00:37:49;21.50;99.90
25949;DHT22;13961;51.178;4.448;2023-09-08T00:40:14;21.50;99.90
25949;DHT22;13961;51.178;4.448;2023-09-08T00:42:40;21.40;99.90
25949;DHT22;13961;51.178;4.448;2023-09-08T00:45:06;21.40;99.90
25949;DHT22;13961;51.178;4.448;2023-09-08T00:47:32;21.40;99.90
25949;DHT22;13961;51.178;4.448;2023-09-08T00:49:58;21.30;99.90
25949;DHT22;13961;51.178;4.448;2023-09-08T00:52:23;21.30;99.90
25949;DHT22;13961;51.178;4.448;2023-09-08T00:54:49;21.40;99.90
25949;DHT22;13961;51.178;4.448;2023-09-08T00:57:15;21.40;99.90
25949;DHT22;13961;51.178;4.448;2023-09-08T00:59:41;21.30;99.90
25949;DHT22;13961;51.178;4.448;2023-09-08T01:02:06;21.40;99.90
25949;DHT22;13961;51.178;4.448;2023-09-08T01:04:32;21.30;99.90
25949;DHT22;13961;51.178;4.448;2023-09-08T01:06:59;21.30;99.90
25949;DHT22;13961;51.178;4.448;2023-09-08T01:09:25;21.20;99.90
25949;DHT22;13961;51.178;4.448;2023-09-08T01:11:51;21.10;99.90
25949;DHT22;13961;51.178;4.448;2023-09-08T01:14:20;21.10;99.90
25949;DHT22;13961;51.178;4.448;2023-09-08T01:16:46;21.00;99.90
25949;DHT22;13961;51.178;4.448;2023-09-08T01:19:13;21.00;99.90
25949;DHT22;13961;51.178;4.448;2023-09-08T01:22:03;21.10;99.90
25949;DHT22;13961;51.178;4.448;2023-09-08T01:27:31;21.10;99.90
25949;DHT22;13961;51.178;4.448;2023-09-08T01:29:58;21.10;99.90
25949;DHT22;13961;51.178;4.448;2023-09-08T01:32:25;21.00;99.90
25949;DHT22;13961;51.178;4.448;2023-09-08T01:34:52;21.00;99.90
25949;DHT22;13961;51.178;4.448;2023-09-08T01:37:18;20.90;99.90
25949;DHT22;13961;51.178;4.448;2023-09-08T01:39:43;21.00;99.90
25949;DHT22;13961;51.178;4.448;2023-09-08T01:42:09;20.90;99.90
25949;DHT22;13961;51.178;4.448;2023-09-08T01:44:34;20.80;99.90
25949;DHT22;13961;51.178;4.448;2023-09-08T01:47:01;20.90;99.90
25949;DHT22;13961;51.178;4.448;2023-09-08T01:49:27;20.70;99.90
25949;DHT22;13961;51.178;4.448;2023-09-08T01:51:52;20.60;99.90
25949;DHT22;13961;51.178;4.448;2023-09-08T01:54:18;20.60;99.90
25949;DHT22;13961;51.178;4.448;2023-09-08T01:56:44;20.70;99.90
25949;DHT22;13961;51.178;4.448;2023-09-08T01:59:09;20.70;99.90
25949;DHT22;13961;51.178;4.448;2023-09-08T02:01:35;20.60;99.90
25949;DHT22;13961;51.178;4.448;2023-09-08T02:04:02;20.60;99.90
25949;DHT22;13961;51.178;4.448;2023-09-08T02:06:27;20.70;99.90
25949;DHT22;13961;51.178;4.448;2023-09-08T02:08:53;20.70;99.90
25949;DHT22;13961;51.178;4.448;2023-09-08T02:11:19;20.60;99.90
25949;DHT22;13961;51.178;4.448;2023-09-08T02:13:45;20.60;99.90
25949;DHT22;13961;51.178;4.448;2023-09-08T02:16:14;20.60;99.90
25949;DHT22;13961;51.178;4.448;2023-09-08T02:18:44;20.50;99.90
25949;DHT22;13961;51.178;4.448;2023-09-08T02:21:10;20.40;99.90
25949;DHT22;13961;51.178;4.448;2023-09-08T02:23:36;20.40;99.90
25949;DHT22;13961;51.178;4.448;2023-09-08T02:26:01;20.40;99.90
25949;DHT22;13961;51.178;4.448;2023-09-08T02:28:27;20.40;99.90
25949;DHT22;13961;51.178;4.448;2023-09-08T02:30:54;20.30;99.90
25949;DHT22;13961;51.178;4.448;2023-09-08T02:33:19;20.20;99.90
25949;DHT22;13961;51.178;4.448;2023-09-08T02:35:45;20.20;99.90
25949;DHT22;13961;51.178;4.448;2023-09-08T02:38:10;20.20;99.90
25949;DHT22;13961;51.178;4.448;2023-09-08T02:40:37;20.10;99.90
25949;DHT22;13961;51.178;4.448;2023-09-08T02:43:03;20.10;99.90
25949;DHT22;13961;51.178;4.448;2023-09-08T02:45:29;20.20;99.90
25949;DHT22;13961;51.178;4.448;2023-09-08T02:47:55;20.20;99.90
25949;DHT22;13961;51.178;4.448;2023-09-08T02:50:21;20.20;99.90
25949;DHT22;13961;51.178;4.448;2023-09-08T02:52:47;20.10;99.90
25949;DHT22;13961;51.178;4.448;2023-09-08T02:55:13;20.10;99.90
25949;DHT22;13961;51.178;4.448;2023-09-08T02:57:40;20.00;99.90
25949;DHT22;13961;51.178;4.448;2023-09-08T03:00:06;20.00;99.90
25949;DHT22;13961;51.178;4.448;2023-09-08T03:02:33;19.90;99.90
25949;DHT22;13961;51.178;4.448;2023-09-08T03:04:59;20.00;99.90
25949;DHT22;13961;51.178;4.448;2023-09-08T03:07:26;20.00;99.90
25949;DHT22;13961;51.178;4.448;2023-09-08T03:09:51;20.10;99.90
25949;DHT22;13961;51.178;4.448;2023-09-08T03:12:17;20.00;99.90
25949;DHT22;13961;51.178;4.448;2023-09-08T03:14:44;20.10;99.90
25949;DHT22;13961;51.178;4.448;2023-09-08T03:17:10;20.00;99.90
25949;DHT22;13961;51.178;4.448;2023-09-08T03:19:36;20.00;99.90
25949;DHT22;13961;51.178;4.448;2023-09-08T03:22:02;20.00;99.90
25949;DHT22;13961;51.178;4.448;2023-09-08T03:24:28;19.90;99.90
25949;DHT22;13961;51.178;4.448;2023-09-08T03:26:53;19.90;99.90
25949;DHT22;13961;51.178;4.448;2023-09-08T03:29:19;19.90;99.90
25949;DHT22;13961;51.178;4.448;2023-09-08T03:31:45;19.90;99.90
25949;DHT22;13961;51.178;4.448;2023-09-08T03:34:10;19.80;99.90
25949;DHT22;13961;51.178;4.448;2023-09-08T03:36:36;19.80;99.90
25949;DHT22;13961;51.178;4.448;2023-09-08T03:39:03;19.60;99.90
25949;DHT22;13961;51.178;4.448;2023-09-08T03:41:28;19.70;99.90
25949;DHT22;13961;51.178;4.448;2023-09-08T03:43:54;19.60;99.90
25949;DHT22;13961;51.178;4.448;2023-09-08T03:46:21;19.60;99.90
25949;DHT22;13961;51.178;4.448;2023-09-08T03:48:46;19.60;99.90
25949;DHT22;13961;51.178;4.448;2023-09-08T03:51:12;19.50;99.90
25949;DHT22;13961;51.178;4.448;2023-09-08T03:53:38;19.50;99.90
25949;DHT22;13961;51.178;4.448;2023-09-08T03:56:03;19.50;99.90
25949;DHT22;13961;51.178;4.448;2023-09-08T03:58:29;19.50;99.90
25949;DHT22;13961;51.178;4.448;2023-09-08T04:00:55;19.40;99.90
25949;DHT22;13961;51.178;4.448;2023-09-08T04:03:20;19.40;99.90
25949;DHT22;13961;51.178;4.448;2023-09-08T04:05:46;19.40;99.90
25949;DHT22;13961;51.178;4.448;2023-09-08T04:08:11;19.40;99.90
25949;DHT22;13961;51.178;4.448;2023-09-08T04:10:37;19.50;99.90
25949;DHT22;13961;51.178;4.448;2023-09-08T04:13:03;19.60;99.90
25949;DHT22;13961;51.178;4.448;2023-09-08T04:15:29;19.60;99.90
25949;DHT22;13961;51.178;4.448;2023-09-08T04:17:55;19.60;99.90
25949;DHT22;13961;51.178;4.448;2023-09-08T04:20:22;19.50;99.90
25949;DHT22;13961;51.178;4.448;2023-09-08T04:22:48;19.50;99.90
25949;DHT22;13961;51.178;4.448;2023-09-08T04:25:14;19.50;99.90
25949;DHT22;13961;51.178;4.448;2023-09-08T04:27:40;19.50;99.90
25949;DHT22;13961;51.178;4.448;2023-09-08T04:30:07;19.50;99.90
25949;DHT22;13961;51.178;4.448;2023-09-08T04:32:33;19.40;99.90
25949;DHT22;13961;51.178;4.448;2023-09-08T04:34:58;19.40;99.90
25949;DHT22;13961;51.178;4.448;2023-09-08T04:37:24;19.40;99.90
25949;DHT22;13961;51.178;4.448;2023-09-08T04:39:50;19.40;99.90
25949;DHT22;13961;51.178;4.448;2023-09-08T04:42:15;19.30;99.90
25949;DHT22;13961;51.178;4.448;2023-09-08T04:44:41;19.30;99.90
25949;DHT22;13961;51.178;4.448;2023-09-08T04:47:06;19.30;99.90
25949;DHT22;13961;51.178;4.448;2023-09-08T04:49:32;19.30;99.90
25949;DHT22;13961;51.178;4.448;2023-09-08T04:51:58;19.20;99.90
25949;DHT22;13961;51.178;4.448;2023-09-08T04:54:23;19.20;99.90
25949;DHT22;13961;51.178;4.448;2023-09-08T04:56:53;19.20;99.90
25949;DHT22;13961;51.178;4.448;2023-09-08T04:59:19;19.10;99.90
25949;DHT22;13961;51.178;4.448;2023-09-08T05:01:45;19.10;99.90
25949;DHT22;13961;51.178;4.448;2023-09-08T05:04:11;19.10;99.90
25949;DHT22;13961;51.178;4.448;2023-09-08T05:06:37;19.10;99.90
25949;DHT22;13961;51.178;4.448;2023-09-08T05:09:03;19.00;99.90
25949;DHT22;13961;51.178;4.448;2023-09-08T05:11:28;19.00;99.90
25949;DHT22;13961;51.178;4.448;2023-09-08T05:13:54;18.90;99.90
25949;DHT22;13961;51.178;4.448;2023-09-08T05:16:20;19.10;99.90
25949;DHT22;13961;51.178;4.448;2023-09-08T05:19:05;19.10;99.90
25949;DHT22;13961;51.178;4.448;2023-09-08T05:21:34;19.00;99.90
25949;DHT22;13961;51.178;4.448;2023-09-08T05:24:00;19.00;99.90
25949;DHT22;13961;51.178;4.448;2023-09-08T05:26:26;19.10;99.90
25949;DHT22;13961;51.178;4.448;2023-09-08T05:28:52;19.10;99.90
25949;DHT22;13961;51.178;4.448;2023-09-08T05:31:18;19.10;99.90
25949;DHT22;13961;51.178;4.448;2023-09-08T05:33:44;19.00;99.90
25949;DHT22;13961;51.178;4.448;2023-09-08T05:36:10;19.00;99.90
25949;DHT22;13961;51.178;4.448;2023-09-08T05:38:35;19.10;99.90
25949;DHT22;13961;51.178;4.448;2023-09-08T05:41:01;19.30;99.90
25949;DHT22;13961;51.178;4.448;2023-09-08T05:43:28;19.40;99.90
25949;DHT22;13961;51.178;4.448;2023-09-08T05:45:54;19.40;99.90
25949;DHT22;13961;51.178;4.448;2023-09-08T05:48:19;19.70;99.90
25949;DHT22;13961;51.178;4.448;2023-09-08T05:50:45;19.70;99.90
25949;DHT22;13961;51.178;4.448;2023-09-08T05:53:11;19.70;99.90
25949;DHT22;13961;51.178;4.448;2023-09-08T05:55:36;19.50;99.90
25949;DHT22;13961;51.178;4.448;2023-09-08T05:58:02;19.50;99.90
25949;DHT22;13961;51.178;4.448;2023-09-08T06:00:28;19.60;99.90
25949;DHT22;13961;51.178;4.448;2023-09-08T06:02:53;19.80;99.90
25949;DHT22;13961;51.178;4.448;2023-09-08T06:05:19;19.90;99.90
25949;DHT22;13961;51.178;4.448;2023-09-08T06:07:45;20.00;99.90
25949;DHT22;13961;51.178;4.448;2023-09-08T06:10:10;19.90;99.90
25949;DHT22;13961;51.178;4.448;2023-09-08T06:12:36;20.00;99.90
25949;DHT22;13961;51.178;4.448;2023-09-08T06:15:05;20.30;99.90
25949;DHT22;13961;51.178;4.448;2023-09-08T06:17:31;20.40;99.90
25949;DHT22;13961;51.178;4.448;2023-09-08T06:19:56;20.60;99.90
25949;DHT22;13961;51.178;4.448;2023-09-08T06:22:22;20.80;99.90
25949;DHT22;13961;51.178;4.448;2023-09-08T06:24:48;20.90;99.90
25949;DHT22;13961;51.178;4.448;2023-09-08T06:27:17;21.60;99.90
25949;DHT22;13961;51.178;4.448;2023-09-08T06:29:42;23.00;99.90
25949;DHT22;13961;51.178;4.448;2023-09-08T06:32:09;24.60;99.90
25949;DHT22;13961;51.178;4.448;2023-09-08T06:34:35;26.00;99.90
25949;DHT22;13961;51.178;4.448;2023-09-08T06:37:01;27.20;99.90
25949;DHT22;13961;51.178;4.448;2023-09-08T06:39:27;28.30;99.90
25949;DHT22;13961;51.178;4.448;2023-09-08T06:41:53;29.20;99.90
25949;DHT22;13961;51.178;4.448;2023-09-08T06:44:22;29.70;99.90
25949;DHT22;13961;51.178;4.448;2023-09-08T06:46:48;29.70;99.90
25949;DHT22;13961;51.178;4.448;2023-09-08T06:49:13;30.10;99.90
25949;DHT22;13961;51.178;4.448;2023-09-08T06:51:39;30.50;99.90
25949;DHT22;13961;51.178;4.448;2023-09-08T06:54:05;31.20;99.90
25949;DHT22;13961;51.178;4.448;2023-09-08T06:56:31;31.50;99.90
25949;DHT22;13961;51.178;4.448;2023-09-08T06:58:56;31.40;99.90
25949;DHT22;13961;51.178;4.448;2023-09-08T07:01:25;31.50;99.90
25949;DHT22;13961;51.178;4.448;2023-09-08T07:03:51;31.60;99.90
25949;DHT22;13961;51.178;4.448;2023-09-08T07:06:17;32.00;99.90
25949;DHT22;13961;51.178;4.448;2023-09-08T07:08:42;32.60;99.90
25949;DHT22;13961;51.178;4.448;2023-09-08T07:11:09;32.90;99.90
25949;DHT22;13961;51.178;4.448;2023-09-08T07:13:34;32.90;99.90
25949;DHT22;13961;51.178;4.448;2023-09-08T07:16:00;32.50;99.90
25949;DHT22;13961;51.178;4.448;2023-09-08T07:18:26;32.70;99.90
25949;DHT22;13961;51.178;4.448;2023-09-08T07:20:52;32.90;99.90
25949;DHT22;13961;51.178;4.448;2023-09-08T07:23:17;32.50;99.90
25949;DHT22;13961;51.178;4.448;2023-09-08T07:25:47;32.30;99.90
25949;DHT22;13961;51.178;4.448;2023-09-08T07:28:14;32.50;99.90
25949;DHT22;13961;51.178;4.448;2023-09-08T07:30:40;32.40;99.90
25949;DHT22;13961;51.178;4.448;2023-09-08T07:33:05;32.50;99.90
25949;DHT22;13961;51.178;4.448;2023-09-08T07:35:31;32.80;99.90
25949;DHT22;13961;51.178;4.448;2023-09-08T07:37:57;33.00;99.90
25949;DHT22;13961;51.178;4.448;2023-09-08T07:40:23;33.00;99.90
25949;DHT22;13961;51.178;4.448;2023-09-08T07:42:49;34.00;99.40
25949;DHT22;13961;51.178;4.448;2023-09-08T07:45:14;34.30;98.50
25949;DHT22;13961;51.178;4.448;2023-09-08T07:47:40;34.00;99.20
25949;DHT22;13961;51.178;4.448;2023-09-08T07:50:25;34.00;97.50
25949;DHT22;13961;51.178;4.448;2023-09-08T07:52:52;34.40;98.10
25949;DHT22;13961;51.178;4.448;2023-09-08T07:55:19;34.90;96.90
25949;DHT22;13961;51.178;4.448;2023-09-08T07:57:45;35.10;96.20
25949;DHT22;13961;51.178;4.448;2023-09-08T08:00:12;35.20;96.20
25949;DHT22;13961;51.178;4.448;2023-09-08T08:02:42;35.30;95.20
25949;DHT22;13961;51.178;4.448;2023-09-08T08:05:10;35.40;95.10
25949;DHT22;13961;51.178;4.448;2023-09-08T08:07:36;35.20;94.80
25949;DHT22;13961;51.178;4.448;2023-09-08T08:10:02;35.10;96.00
25949;DHT22;13961;51.178;4.448;2023-09-08T08:12:28;35.00;95.90
25949;DHT22;13961;51.178;4.448;2023-09-08T08:14:54;34.30;96.20
25949;DHT22;13961;51.178;4.448;2023-09-08T08:17:19;33.30;98.30
25949;DHT22;13961;51.178;4.448;2023-09-08T08:19:45;33.60;98.70
25949;DHT22;13961;51.178;4.448;2023-09-08T08:22:11;33.80;97.90
25949;DHT22;13961;51.178;4.448;2023-09-08T08:24:37;33.50;98.40
25949;DHT22;13961;51.178;4.448;2023-09-08T08:27:02;33.90;98.70
25949;DHT22;13961;51.178;4.448;2023-09-08T08:29:29;34.80;97.10
25949;DHT22;13961;51.178;4.448;2023-09-08T08:31:55;35.20;96.40
25949;DHT22;13961;51.178;4.448;2023-09-08T08:34:20;34.30;97.20
25949;DHT22;13961;51.178;4.448;2023-09-08T08:36:46;33.50;98.20
25949;DHT22;13961;51.178;4.448;2023-09-08T08:39:12;33.10;99.40
25949;DHT22;13961;51.178;4.448;2023-09-08T08:41:37;33.50;99.70
25949;DHT22;13961;51.178;4.448;2023-09-08T08:44:08;34.50;98.60
25949;DHT22;13961;51.178;4.448;2023-09-08T08:46:35;34.00;98.50
25949;DHT22;13961;51.178;4.448;2023-09-08T08:49:03;34.60;97.60
25949;DHT22;13961;51.178;4.448;2023-09-08T08:51:31;34.80;97.80
25949;DHT22;13961;51.178;4.448;2023-09-08T08:53:57;34.60;97.30
25949;DHT22;13961;51.178;4.448;2023-09-08T08:56:23;34.90;97.50
25949;DHT22;13961;51.178;4.448;2023-09-08T08:58:49;34.70;97.40
25949;DHT22;13961;51.178;4.448;2023-09-08T09:01:18;34.80;98.20
25949;DHT22;13961;51.178;4.448;2023-09-08T09:03:50;34.40;98.60
25949;DHT22;13961;51.178;4.448;2023-09-08T09:06:16;33.50;98.50
25949;DHT22;13961;51.178;4.448;2023-09-08T09:08:43;32.70;99.80
25949;DHT22;13961;51.178;4.448;2023-09-08T09:11:10;31.50;99.90
25949;DHT22;13961;51.178;4.448;2023-09-08T09:13:37;30.70;99.90
25949;DHT22;13961;51.178;4.448;2023-09-08T09:16:02;30.50;99.90
25949;DHT22;13961;51.178;4.448;2023-09-08T09:18:29;30.00;99.90
25949;DHT22;13961;51.178;4.448;2023-09-08T09:20:58;29.90;99.90
25949;DHT22;13961;51.178;4.448;2023-09-08T09:23:34;29.90;99.90
25949;DHT22;13961;51.178;4.448;2023-09-08T09:26:02;29.70;99.90
25949;DHT22;13961;51.178;4.448;2023-09-08T09:28:29;30.00;99.90
25949;DHT22;13961;51.178;4.448;2023-09-08T09:30:55;30.00;99.90
25949;DHT22;13961;51.178;4.448;2023-09-08T09:33:22;29.60;99.90
25949;DHT22;13961;51.178;4.448;2023-09-08T09:35:50;29.50;99.90
25949;DHT22;13961;51.178;4.448;2023-09-08T09:38:17;29.60;99.90
25949;DHT22;13961;51.178;4.448;2023-09-08T09:40:47;29.90;99.90
25949;DHT22;13961;51.178;4.448;2023-09-08T09:43:15;30.10;99.90
25949;DHT22;13961;51.178;4.448;2023-09-08T09:45:41;30.10;99.90
25949;DHT22;13961;51.178;4.448;2023-09-08T09:48:09;30.30;99.90
25949;DHT22;13961;51.178;4.448;2023-09-08T09:50:36;30.30;99.90
25949;DHT22;13961;51.178;4.448;2023-09-08T09:53:15;30.20;99.90
25949;DHT22;13961;51.178;4.448;2023-09-08T09:55:43;30.20;99.90
25949;DHT22;13961;51.178;4.448;2023-09-08T09:58:10;30.40;99.90
25949;DHT22;13961;51.178;4.448;2023-09-08T10:00:37;30.50;99.90
25949;DHT22;13961;51.178;4.448;2023-09-08T10:03:06;30.20;99.90
25949;DHT22;13961;51.178;4.448;2023-09-08T10:05:32;30.00;99.90
25949;DHT22;13961;51.178;4.448;2023-09-08T10:07:59;30.00;99.90
25949;DHT22;13961;51.178;4.448;2023-09-08T10:10:27;29.90;99.90
25949;DHT22;13961;51.178;4.448;2023-09-08T10:12:59;30.00;99.90
25949;DHT22;13961;51.178;4.448;2023-09-08T10:15:27;29.80;99.90
25949;DHT22;13961;51.178;4.448;2023-09-08T10:17:55;29.90;99.90
25949;DHT22;13961;51.178;4.448;2023-09-08T10:20:23;29.90;99.90
25949;DHT22;13961;51.178;4.448;2023-09-08T10:22:53;30.00;99.90
25949;DHT22;13961;51.178;4.448;2023-09-08T10:25:21;29.90;99.90
25949;DHT22;13961;51.178;4.448;2023-09-08T10:27:50;30.00;99.90
25949;DHT22;13961;51.178;4.448;2023-09-08T10:30:16;30.40;99.90
25949;DHT22;13961;51.178;4.448;2023-09-08T10:32:43;30.40;99.90
25949;DHT22;13961;51.178;4.448;2023-09-08T10:35:10;30.60;99.90
25949;DHT22;13961;51.178;4.448;2023-09-08T10:37:36;30.70;99.90
25949;DHT22;13961;51.178;4.448;2023-09-08T10:40:24;30.80;99.90
25949;DHT22;13961;51.178;4.448;2023-09-08T10:43:21;30.90;99.90
25949;DHT22;13961;51.178;4.448;2023-09-08T10:45:50;30.80;99.90
25949;DHT22;13961;51.178;4.448;2023-09-08T10:48:16;30.50;99.90
25949;DHT22;13961;51.178;4.448;2023-09-08T10:50:42;30.40;99.90
25949;DHT22;13961;51.178;4.448;2023-09-08T10:53:18;30.40;99.90
25949;DHT22;13961;51.178;4.448;2023-09-08T10:55:49;30.60;99.90
25949;DHT22;13961;51.178;4.448;2023-09-08T10:58:29;30.60;99.90
25949;DHT22;13961;51.178;4.448;2023-09-08T11:00:59;30.70;99.90
25949;DHT22;13961;51.178;4.448;2023-09-08T11:03:43;30.70;99.90
25949;DHT22;13961;51.178;4.448;2023-09-08T11:06:10;30.90;99.90
25949;DHT22;13961;51.178;4.448;2023-09-08T11:08:42;31.00;99.90
25949;DHT22;13961;51.178;4.448;2023-09-08T11:11:10;30.90;99.90
25949;DHT22;13961;51.178;4.448;2023-09-08T11:13:36;30.80;99.90
25949;DHT22;13961;51.178;4.448;2023-09-08T11:16:02;31.00;99.90
25949;DHT22;13961;51.178;4.448;2023-09-08T11:18:29;31.10;99.90
25949;DHT22;13961;51.178;4.448;2023-09-08T11:20:55;31.00;99.90
25949;DHT22;13961;51.178;4.448;2023-09-08T11:23:21;31.10;99.90
25949;DHT22;13961;51.178;4.448;2023-09-08T11:25:47;30.90;99.90
25949;DHT22;13961;51.178;4.448;2023-09-08T11:28:14;31.20;99.90
25949;DHT22;13961;51.178;4.448;2023-09-08T11:30:40;31.60;99.90
25949;DHT22;13961;51.178;4.448;2023-09-08T11:33:18;31.60;99.90
25949;DHT22;13961;51.178;4.448;2023-09-08T11:35:47;31.80;99.90
25949;DHT22;13961;51.178;4.448;2023-09-08T11:38:14;31.60;99.90
25949;DHT22;13961;51.178;4.448;2023-09-08T11:40:40;31.30;99.90
25949;DHT22;13961;51.178;4.448;2023-09-08T11:43:06;31.00;99.90
25949;DHT22;13961;51.178;4.448;2023-09-08T11:45:35;31.20;99.90
25949;DHT22;13961;51.178;4.448;2023-09-08T11:48:02;31.50;99.90
25949;DHT22;13961;51.178;4.448;2023-09-08T11:50:29;31.30;99.90
25949;DHT22;13961;51.178;4.448;2023-09-08T11:52:54;31.50;99.90
25949;DHT22;13961;51.178;4.448;2023-09-08T11:55:22;31.10;99.90
25949;DHT22;13961;51.178;4.448;2023-09-08T11:57:52;31.30;99.90
25949;DHT22;13961;51.178;4.448;2023-09-08T12:00:23;31.40;99.90
25949;DHT22;13961;51.178;4.448;2023-09-08T12:02:49;31.50;99.90
25949;DHT22;13961;51.178;4.448;2023-09-08T12:07:50;31.80;99.90
25949;DHT22;13961;51.178;4.448;2023-09-08T12:10:17;31.50;99.90
25949;DHT22;13961;51.178;4.448;2023-09-08T12:12:48;31.60;99.90
25949;DHT22;13961;51.178;4.448;2023-09-08T12:17:59;31.60;99.90
25949;DHT22;13961;51.178;4.448;2023-09-08T12:20:25;31.70;99.90
25949;DHT22;13961;51.178;4.448;2023-09-08T12:22:51;31.70;99.90
25949;DHT22;13961;51.178;4.448;2023-09-08T12:25:18;31.40;99.90
25949;DHT22;13961;51.178;4.448;2023-09-08T12:27:49;31.40;99.90
25949;DHT22;13961;51.178;4.448;2023-09-08T12:30:20;31.40;99.90
25949;DHT22;13961;51.178;4.448;2023-09-08T12:32:50;31.80;99.90
25949;DHT22;13961;51.178;4.448;2023-09-08T12:35:23;31.70;99.90
25949;DHT22;13961;51.178;4.448;2023-09-08T12:38:07;31.80;99.90
25949;DHT22;13961;51.178;4.448;2023-09-08T12:40:37;32.10;99.90
25949;DHT22;13961;51.178;4.448;2023-09-08T12:43:04;32.20;99.90
25949;DHT22;13961;51.178;4.448;2023-09-08T12:45:30;32.10;99.90
25949;DHT22;13961;51.178;4.448;2023-09-08T12:47:59;32.20;99.90
25949;DHT22;13961;51.178;4.448;2023-09-08T12:50:27;32.20;99.90
25949;DHT22;13961;51.178;4.448;2023-09-08T12:52:53;32.00;99.90
25949;DHT22;13961;51.178;4.448;2023-09-08T12:55:19;31.70;99.90
25949;DHT22;13961;51.178;4.448;2023-09-08T12:57:45;31.90;99.90
25949;DHT22;13961;51.178;4.448;2023-09-08T13:00:12;32.20;99.90
25949;DHT22;13961;51.178;4.448;2023-09-08T13:02:38;32.20;99.90
25949;DHT22;13961;51.178;4.448;2023-09-08T13:05:04;32.40;99.90
25949;DHT22;13961;51.178;4.448;2023-09-08T13:07:29;32.60;99.90
25949;DHT22;13961;51.178;4.448;2023-09-08T13:09:56;32.60;99.90
25949;DHT22;13961;51.178;4.448;2023-09-08T13:12:22;32.60;99.90
25949;DHT22;13961;51.178;4.448;2023-09-08T13:14:48;32.40;99.90
25949;DHT22;13961;51.178;4.448;2023-09-08T13:17:14;32.40;99.90
25949;DHT22;13961;51.178;4.448;2023-09-08T13:19:44;32.30;99.90
25949;DHT22;13961;51.178;4.448;2023-09-08T13:22:10;32.60;99.90
25949;DHT22;13961;51.178;4.448;2023-09-08T13:24:36;32.40;99.90
25949;DHT22;13961;51.178;4.448;2023-09-08T13:27:02;32.20;99.50
25949;DHT22;13961;51.178;4.448;2023-09-08T13:29:28;32.30;99.90
25949;DHT22;13961;51.178;4.448;2023-09-08T13:31:54;32.10;99.90
25949;DHT22;13961;51.178;4.448;2023-09-08T13:34:23;31.90;99.90
25949;DHT22;13961;51.178;4.448;2023-09-08T13:36:49;32.10;99.90
25949;DHT22;13961;51.178;4.448;2023-09-08T13:39:14;32.20;99.90
25949;DHT22;13961;51.178;4.448;2023-09-08T13:41:50;32.30;99.70
25949;DHT22;13961;51.178;4.448;2023-09-08T13:44:17;32.40;99.90
25949;DHT22;13961;51.178;4.448;2023-09-08T13:46:43;32.10;99.90
25949;DHT22;13961;51.178;4.448;2023-09-08T13:49:09;31.80;99.90
25949;DHT22;13961;51.178;4.448;2023-09-08T13:51:34;32.10;99.90
25949;DHT22;13961;51.178;4.448;2023-09-08T13:54:01;32.30;99.90
25949;DHT22;13961;51.178;4.448;2023-09-08T13:56:26;32.30;99.90
25949;DHT22;13961;51.178;4.448;2023-09-08T13:58:52;32.20;99.90
25949;DHT22;13961;51.178;4.448;2023-09-08T14:01:18;32.30;99.90
25949;DHT22;13961;51.178;4.448;2023-09-08T14:03:43;32.30;99.90
25949;DHT22;13961;51.178;4.448;2023-09-08T14:06:09;32.00;99.90
25949;DHT22;13961;51.178;4.448;2023-09-08T14:08:35;32.00;99.90
25949;DHT22;13961;51.178;4.448;2023-09-08T14:11:00;32.10;99.90
25949;DHT22;13961;51.178;4.448;2023-09-08T14:13:26;32.40;99.90
25949;DHT22;13961;51.178;4.448;2023-09-08T14:15:51;32.60;99.90
25949;DHT22;13961;51.178;4.448;2023-09-08T14:18:20;32.50;99.90
25949;DHT22;13961;51.178;4.448;2023-09-08T14:20:46;32.60;99.90
25949;DHT22;13961;51.178;4.448;2023-09-08T14:23:11;32.60;99.80
25949;DHT22;13961;51.178;4.448;2023-09-08T14:25:37;32.50;99.80
25949;DHT22;13961;51.178;4.448;2023-09-08T14:28:03;32.30;99.90
25949;DHT22;13961;51.178;4.448;2023-09-08T14:30:29;32.20;99.90
25949;DHT22;13961;51.178;4.448;2023-09-08T14:32:55;32.10;99.90
25949;DHT22;13961;51.178;4.448;2023-09-08T14:35:20;32.20;99.90
25949;DHT22;13961;51.178;4.448;2023-09-08T14:37:47;32.10;99.90
25949;DHT22;13961;51.178;4.448;2023-09-08T14:40:14;32.10;99.90
25949;DHT22;13961;51.178;4.448;2023-09-08T14:42:39;31.80;99.90
25949;DHT22;13961;51.178;4.448;2023-09-08T14:45:05;31.90;99.90
25949;DHT22;13961;51.178;4.448;2023-09-08T14:47:31;31.70;99.90
25949;DHT22;13961;51.178;4.448;2023-09-08T14:49:57;31.70;99.90
25949;DHT22;13961;51.178;4.448;2023-09-08T14:52:23;32.00;99.90
25949;DHT22;13961;51.178;4.448;2023-09-08T14:54:49;32.20;99.90
25949;DHT22;13961;51.178;4.448;2023-09-08T14:57:15;32.10;99.90
25949;DHT22;13961;51.178;4.448;2023-09-08T14:59:40;32.00;99.90
25949;DHT22;13961;51.178;4.448;2023-09-08T15:02:07;32.00;99.90
25949;DHT22;13961;51.178;4.448;2023-09-08T15:04:33;32.00;99.90
25949;DHT22;13961;51.178;4.448;2023-09-08T15:06:59;32.10;99.90
25949;DHT22;13961;51.178;4.448;2023-09-08T15:09:25;32.00;99.90
25949;DHT22;13961;51.178;4.448;2023-09-08T15:11:50;32.00;99.90
25949;DHT22;13961;51.178;4.448;2023-09-08T15:14:16;32.00;99.90
25949;DHT22;13961;51.178;4.448;2023-09-08T15:16:42;32.10;99.90
25949;DHT22;13961;51.178;4.448;2023-09-08T15:19:08;32.40;99.90
25949;DHT22;13961;51.178;4.448;2023-09-08T15:21:34;32.40;99.90
25949;DHT22;13961;51.178;4.448;2023-09-08T15:24:00;32.00;99.90
25949;DHT22;13961;51.178;4.448;2023-09-08T15:26:25;31.80;99.90
25949;DHT22;13961;51.178;4.448;2023-09-08T15:28:51;31.80;99.90
25949;DHT22;13961;51.178;4.448;2023-09-08T15:31:17;31.60;99.90
25949;DHT22;13961;51.178;4.448;2023-09-08T15:33:42;31.70;99.90
25949;DHT22;13961;51.178;4.448;2023-09-08T15:36:08;31.90;99.90